sensor_id;sensor_type;location;lat;lon;timestamp;P1;durP1;ratioP1;P2;durP2;ratioP2
41653;SDS011;68687;52.030;7.110;2023-05-21T00:01:39;8.38;;;6.90;;
41653;SDS011;68687;52.030;7.110;2023-05-21T00:04:04;9.25;;;6.65;;
41653;SDS011;68687;52.030;7.110;2023-05-21T00:06:32;11.05;;;7.35;;
41653;SDS011;68687;52.030;7.110;2023-05-21T00:09:03;9.45;;;7.20;;
41653;SDS011;68687;52.030;7.110;2023-05-21T00:11:29;7.30;;;6.53;;
41653;SDS011;68687;52.030;7.110;2023-05-21T00:13:54;9.15;;;6.93;;
41653;SDS011;68687;52.030;7.110;2023-05-21T00:16:20;8.13;;;6.65;;
41653;SDS011;68687;52.030;7.110;2023-05-21T00:18:46;13.50;;;10.25;;
41653;SDS011;68687;52.030;7.110;2023-05-21T00:21:13;7.88;;;7.00;;
41653;SDS011;68687;52.030;7.110;2023-05-21T00:23:41;10.50;;;6.93;;
41653;SDS011;68687;52.030;7.110;2023-05-21T00:26:10;11.10;;;8.40;;
41653;SDS011;68687;52.030;7.110;2023-05-21T00:28:38;13.27;;;8.20;;
41653;SDS011;68687;52.030;7.110;2023-05-21T00:31:03;8.15;;;7.05;;
41653;SDS011;68687;52.030;7.110;2023-05-21T00:33:29;11.07;;;7.38;;
41653;SDS011;68687;52.030;7.110;2023-05-21T00:35:57;9.05;;;7.15;;
41653;SDS011;68687;52.030;7.110;2023-05-21T00:38:23;8.60;;;7.15;;
41653;SDS011;68687;52.030;7.110;2023-05-21T00:40:48;11.68;;;7.97;;
41653;SDS011;68687;52.030;7.110;2023-05-21T00:43:17;8.68;;;7.22;;
41653;SDS011;68687;52.030;7.110;2023-05-21T00:45:45;10.98;;;7.45;;
41653;SDS011;68687;52.030;7.110;2023-05-21T00:48:12;11.35;;;7.63;;
41653;SDS011;68687;52.030;7.110;2023-05-21T00:50:39;9.35;;;6.70;;
41653;SDS011;68687;52.030;7.110;2023-05-21T00:53:08;8.93;;;7.32;;
41653;SDS011;68687;52.030;7.110;2023-05-21T00:55:36;9.65;;;6.85;;
41653;SDS011;68687;52.030;7.110;2023-05-21T00:58:01;10.63;;;7.75;;
41653;SDS011;68687;52.030;7.110;2023-05-21T01:00:29;8.82;;;7.47;;
41653;SDS011;68687;52.030;7.110;2023-05-21T01:02:56;9.60;;;7.80;;
41653;SDS011;68687;52.030;7.110;2023-05-21T01:05:22;10.10;;;7.60;;
41653;SDS011;68687;52.030;7.110;2023-05-21T01:07:50;9.98;;;7.50;;
41653;SDS011;68687;52.030;7.110;2023-05-21T01:10:16;10.15;;;7.68;;
41653;SDS011;68687;52.030;7.110;2023-05-21T01:12:51;8.70;;;7.40;;
41653;SDS011;68687;52.030;7.110;2023-05-21T01:15:20;9.88;;;7.68;;
41653;SDS011;68687;52.030;7.110;2023-05-21T01:17:45;9.02;;;7.68;;
41653;SDS011;68687;52.030;7.110;2023-05-21T01:20:12;8.43;;;7.30;;
41653;SDS011;68687;52.030;7.110;2023-05-21T01:22:48;12.25;;;8.07;;
41653;SDS011;68687;52.030;7.110;2023-05-21T01:25:21;10.40;;;7.63;;
41653;SDS011;68687;52.030;7.110;2023-05-21T01:27:47;11.13;;;8.18;;
41653;SDS011;68687;52.030;7.110;2023-05-21T01:30:13;10.13;;;8.05;;
41653;SDS011;68687;52.030;7.110;2023-05-21T01:35:27;11.85;;;8.10;;
41653;SDS011;68687;52.030;7.110;2023-05-21T01:37:58;10.13;;;8.32;;
41653;SDS011;68687;52.030;7.110;2023-05-21T01:43:21;10.57;;;7.28;;
41653;SDS011;68687;52.030;7.110;2023-05-21T01:45:48;16.13;;;8.57;;
41653;SDS011;68687;52.030;7.110;2023-05-21T01:48:22;11.27;;;7.93;;
41653;SDS011;68687;52.030;7.110;2023-05-21T01:50:50;9.52;;;7.88;;
41653;SDS011;68687;52.030;7.110;2023-05-21T01:53:22;10.15;;;8.48;;
41653;SDS011;68687;52.030;7.110;2023-05-21T01:55:47;11.82;;;8.30;;
41653;SDS011;68687;52.030;7.110;2023-05-21T01:58:13;10.02;;;8.75;;
41653;SDS011;68687;52.030;7.110;2023-05-21T02:00:42;10.57;;;7.47;;
41653;SDS011;68687;52.030;7.110;2023-05-21T02:03:09;10.05;;;8.48;;
41653;SDS011;68687;52.030;7.110;2023-05-21T02:05:34;10.30;;;7.90;;
41653;SDS011;68687;52.030;7.110;2023-05-21T02:08:00;9.13;;;8.15;;
41653;SDS011;68687;52.030;7.110;2023-05-21T02:10:28;10.95;;;7.85;;
41653;SDS011;68687;52.030;7.110;2023-05-21T02:12:54;15.77;;;8.85;;
41653;SDS011;68687;52.030;7.110;2023-05-21T02:15:19;10.90;;;8.32;;
41653;SDS011;68687;52.030;7.110;2023-05-21T02:17:45;10.73;;;8.52;;
41653;SDS011;68687;52.030;7.110;2023-05-21T02:20:10;12.40;;;8.75;;
41653;SDS011;68687;52.030;7.110;2023-05-21T02:22:40;17.20;;;8.85;;
41653;SDS011;68687;52.030;7.110;2023-05-21T02:25:07;10.07;;;8.13;;
41653;SDS011;68687;52.030;7.110;2023-05-21T02:27:37;10.88;;;8.85;;
41653;SDS011;68687;52.030;7.110;2023-05-21T02:30:03;10.02;;;8.40;;
41653;SDS011;68687;52.030;7.110;2023-05-21T02:32:32;12.90;;;9.35;;
41653;SDS011;68687;52.030;7.110;2023-05-21T02:34:59;11.68;;;9.07;;
41653;SDS011;68687;52.030;7.110;2023-05-21T02:37:28;13.55;;;8.85;;
41653;SDS011;68687;52.030;7.110;2023-05-21T02:39:57;12.48;;;9.05;;
41653;SDS011;68687;52.030;7.110;2023-05-21T02:42:23;15.05;;;9.63;;
41653;SDS011;68687;52.030;7.110;2023-05-21T02:44:52;11.68;;;8.73;;
41653;SDS011;68687;52.030;7.110;2023-05-21T02:47:20;12.15;;;9.50;;
41653;SDS011;68687;52.030;7.110;2023-05-21T02:49:51;12.05;;;8.95;;
41653;SDS011;68687;52.030;7.110;2023-05-21T02:52:19;11.50;;;9.00;;
41653;SDS011;68687;52.030;7.110;2023-05-21T02:54:51;14.57;;;9.45;;
41653;SDS011;68687;52.030;7.110;2023-05-21T02:57:16;10.60;;;9.27;;
41653;SDS011;68687;52.030;7.110;2023-05-21T02:59:42;10.75;;;9.27;;
41653;SDS011;68687;52.030;7.110;2023-05-21T03:02:07;15.10;;;9.32;;
41653;SDS011;68687;52.030;7.110;2023-05-21T03:04:33;17.42;;;9.60;;
41653;SDS011;68687;52.030;7.110;2023-05-21T03:07:05;11.15;;;8.90;;
41653;SDS011;68687;52.030;7.110;2023-05-21T03:09:30;14.07;;;9.60;;
41653;SDS011;68687;52.030;7.110;2023-05-21T03:11:56;17.58;;;9.00;;
41653;SDS011;68687;52.030;7.110;2023-05-21T03:14:24;13.18;;;9.73;;
41653;SDS011;68687;52.030;7.110;2023-05-21T03:16:58;16.00;;;10.45;;
41653;SDS011;68687;52.030;7.110;2023-05-21T03:19:24;16.70;;;11.05;;
41653;SDS011;68687;52.030;7.110;2023-05-21T03:21:49;16.52;;;10.52;;
41653;SDS011;68687;52.030;7.110;2023-05-21T03:24:14;13.45;;;10.50;;
41653;SDS011;68687;52.030;7.110;2023-05-21T03:26:40;13.20;;;10.13;;
41653;SDS011;68687;52.030;7.110;2023-05-21T03:29:05;11.85;;;9.48;;
41653;SDS011;68687;52.030;7.110;2023-05-21T03:31:30;13.88;;;10.13;;
41653;SDS011;68687;52.030;7.110;2023-05-21T03:33:56;11.95;;;9.55;;
41653;SDS011;68687;52.030;7.110;2023-05-21T03:36:30;12.60;;;9.93;;
41653;SDS011;68687;52.030;7.110;2023-05-21T03:38:55;19.63;;;11.43;;
41653;SDS011;68687;52.030;7.110;2023-05-21T03:41:20;16.67;;;9.52;;
41653;SDS011;68687;52.030;7.110;2023-05-21T03:43:46;18.55;;;10.15;;
41653;SDS011;68687;52.030;7.110;2023-05-21T03:46:11;14.82;;;9.85;;
41653;SDS011;68687;52.030;7.110;2023-05-21T03:48:39;12.90;;;9.82;;
41653;SDS011;68687;52.030;7.110;2023-05-21T03:51:05;14.40;;;10.27;;
41653;SDS011;68687;52.030;7.110;2023-05-21T03:53:35;13.65;;;10.55;;
41653;SDS011;68687;52.030;7.110;2023-05-21T03:56:03;17.65;;;9.85;;
41653;SDS011;68687;52.030;7.110;2023-05-21T03:58:29;15.10;;;9.95;;
41653;SDS011;68687;52.030;7.110;2023-05-21T04:00:54;17.08;;;10.05;;
41653;SDS011;68687;52.030;7.110;2023-05-21T04:03:20;15.52;;;10.43;;
41653;SDS011;68687;52.030;7.110;2023-05-21T04:05:51;15.05;;;9.68;;
41653;SDS011;68687;52.030;7.110;2023-05-21T04:08:17;14.35;;;10.38;;
41653;SDS011;68687;52.030;7.110;2023-05-21T04:10:42;18.88;;;10.18;;
41653;SDS011;68687;52.030;7.110;2023-05-21T04:13:08;15.23;;;9.88;;
41653;SDS011;68687;52.030;7.110;2023-05-21T04:15:33;13.98;;;9.88;;
41653;SDS011;68687;52.030;7.110;2023-05-21T04:17:59;18.13;;;10.70;;
41653;SDS011;68687;52.030;7.110;2023-05-21T04:20:28;19.35;;;11.00;;
41653;SDS011;68687;52.030;7.110;2023-05-21T04:22:53;13.80;;;10.35;;
41653;SDS011;68687;52.030;7.110;2023-05-21T04:25:21;14.80;;;9.95;;
41653;SDS011;68687;52.030;7.110;2023-05-21T04:27:47;13.90;;;10.43;;
41653;SDS011;68687;52.030;7.110;2023-05-21T04:30:13;12.23;;;9.45;;
41653;SDS011;68687;52.030;7.110;2023-05-21T04:32:39;16.52;;;10.00;;
41653;SDS011;68687;52.030;7.110;2023-05-21T04:35:04;15.27;;;10.38;;
41653;SDS011;68687;52.030;7.110;2023-05-21T04:37:30;14.25;;;10.15;;
41653;SDS011;68687;52.030;7.110;2023-05-21T04:40:02;12.57;;;9.73;;
41653;SDS011;68687;52.030;7.110;2023-05-21T04:42:27;14.05;;;10.73;;
41653;SDS011;68687;52.030;7.110;2023-05-21T04:44:53;17.15;;;11.02;;
41653;SDS011;68687;52.030;7.110;2023-05-21T04:47:19;18.92;;;10.48;;
41653;SDS011;68687;52.030;7.110;2023-05-21T04:49:48;16.17;;;9.98;;
41653;SDS011;68687;52.030;7.110;2023-05-21T04:52:14;13.93;;;10.85;;
41653;SDS011;68687;52.030;7.110;2023-05-21T04:54:40;16.67;;;10.15;;
41653;SDS011;68687;52.030;7.110;2023-05-21T04:57:06;15.57;;;10.55;;
41653;SDS011;68687;52.030;7.110;2023-05-21T04:59:37;16.33;;;9.95;;
41653;SDS011;68687;52.030;7.110;2023-05-21T05:02:03;13.52;;;10.27;;
41653;SDS011;68687;52.030;7.110;2023-05-21T05:04:32;15.60;;;10.40;;
41653;SDS011;68687;52.030;7.110;2023-05-21T05:06:57;16.23;;;11.13;;
41653;SDS011;68687;52.030;7.110;2023-05-21T05:09:23;15.65;;;10.50;;
41653;SDS011;68687;52.030;7.110;2023-05-21T05:11:49;15.27;;;11.80;;
41653;SDS011;68687;52.030;7.110;2023-05-21T05:14:15;13.18;;;10.60;;
41653;SDS011;68687;52.030;7.110;2023-05-21T05:16:40;14.27;;;10.65;;
41653;SDS011;68687;52.030;7.110;2023-05-21T05:19:06;18.17;;;10.07;;
41653;SDS011;68687;52.030;7.110;2023-05-21T05:21:32;16.17;;;11.10;;
41653;SDS011;68687;52.030;7.110;2023-05-21T05:24:00;15.02;;;11.15;;
41653;SDS011;68687;52.030;7.110;2023-05-21T05:26:25;13.82;;;11.40;;
41653;SDS011;68687;52.030;7.110;2023-05-21T05:28:51;17.63;;;11.75;;
41653;SDS011;68687;52.030;7.110;2023-05-21T05:31:16;13.85;;;10.60;;
41653;SDS011;68687;52.030;7.110;2023-05-21T05:33:42;19.88;;;11.32;;
41653;SDS011;68687;52.030;7.110;2023-05-21T05:36:07;17.45;;;11.15;;
41653;SDS011;68687;52.030;7.110;2023-05-21T05:38:33;15.40;;;10.65;;
41653;SDS011;68687;52.030;7.110;2023-05-21T05:40:58;14.25;;;10.95;;
41653;SDS011;68687;52.030;7.110;2023-05-21T05:43:24;12.35;;;10.25;;
41653;SDS011;68687;52.030;7.110;2023-05-21T05:45:50;14.10;;;10.13;;
41653;SDS011;68687;52.030;7.110;2023-05-21T05:48:15;21.13;;;11.07;;
41653;SDS011;68687;52.030;7.110;2023-05-21T05:50:41;16.58;;;10.88;;
41653;SDS011;68687;52.030;7.110;2023-05-21T05:53:06;14.70;;;10.75;;
41653;SDS011;68687;52.030;7.110;2023-05-21T05:55:32;26.00;;;12.20;;
41653;SDS011;68687;52.030;7.110;2023-05-21T05:57:57;14.38;;;11.02;;
41653;SDS011;68687;52.030;7.110;2023-05-21T06:00:25;17.45;;;11.50;;
41653;SDS011;68687;52.030;7.110;2023-05-21T06:02:51;14.27;;;10.75;;
41653;SDS011;68687;52.030;7.110;2023-05-21T06:05:16;15.60;;;11.55;;
41653;SDS011;68687;52.030;7.110;2023-05-21T06:07:41;14.75;;;10.32;;
41653;SDS011;68687;52.030;7.110;2023-05-21T06:10:07;17.85;;;11.00;;
41653;SDS011;68687;52.030;7.110;2023-05-21T06:12:33;14.88;;;11.02;;
41653;SDS011;68687;52.030;7.110;2023-05-21T06:14:58;17.90;;;11.05;;
41653;SDS011;68687;52.030;7.110;2023-05-21T06:17:24;16.65;;;10.70;;
41653;SDS011;68687;52.030;7.110;2023-05-21T06:19:49;15.90;;;11.27;;
41653;SDS011;68687;52.030;7.110;2023-05-21T06:22:15;16.95;;;11.82;;
41653;SDS011;68687;52.030;7.110;2023-05-21T06:24:40;16.20;;;11.35;;
41653;SDS011;68687;52.030;7.110;2023-05-21T06:27:05;15.23;;;11.25;;
41653;SDS011;68687;52.030;7.110;2023-05-21T06:29:34;15.52;;;10.90;;
41653;SDS011;68687;52.030;7.110;2023-05-21T06:31:59;21.98;;;12.05;;
41653;SDS011;68687;52.030;7.110;2023-05-21T06:34:25;15.50;;;10.85;;
41653;SDS011;68687;52.030;7.110;2023-05-21T06:36:51;17.25;;;11.10;;
41653;SDS011;68687;52.030;7.110;2023-05-21T06:39:22;16.05;;;10.48;;
41653;SDS011;68687;52.030;7.110;2023-05-21T06:41:48;16.50;;;10.50;;
41653;SDS011;68687;52.030;7.110;2023-05-21T06:44:13;17.75;;;10.93;;
41653;SDS011;68687;52.030;7.110;2023-05-21T06:46:40;18.05;;;11.82;;
41653;SDS011;68687;52.030;7.110;2023-05-21T06:49:06;19.33;;;11.38;;
41653;SDS011;68687;52.030;7.110;2023-05-21T06:51:31;14.27;;;10.57;;
41653;SDS011;68687;52.030;7.110;2023-05-21T06:53:57;16.67;;;11.35;;
41653;SDS011;68687;52.030;7.110;2023-05-21T06:56:22;14.00;;;11.05;;
41653;SDS011;68687;52.030;7.110;2023-05-21T06:58:48;17.88;;;11.77;;
41653;SDS011;68687;52.030;7.110;2023-05-21T07:01:13;19.05;;;11.20;;
41653;SDS011;68687;52.030;7.110;2023-05-21T07:03:41;20.58;;;11.70;;
41653;SDS011;68687;52.030;7.110;2023-05-21T07:06:07;18.58;;;11.25;;
41653;SDS011;68687;52.030;7.110;2023-05-21T07:08:32;18.80;;;11.10;;
41653;SDS011;68687;52.030;7.110;2023-05-21T07:11:00;19.05;;;10.88;;
41653;SDS011;68687;52.030;7.110;2023-05-21T07:13:29;16.58;;;10.85;;
41653;SDS011;68687;52.030;7.110;2023-05-21T07:15:54;18.38;;;11.65;;
41653;SDS011;68687;52.030;7.110;2023-05-21T07:18:22;18.17;;;10.80;;
41653;SDS011;68687;52.030;7.110;2023-05-21T07:20:48;14.70;;;10.88;;
41653;SDS011;68687;52.030;7.110;2023-05-21T07:23:13;15.40;;;11.38;;
41653;SDS011;68687;52.030;7.110;2023-05-21T07:25:41;20.88;;;11.40;;
41653;SDS011;68687;52.030;7.110;2023-05-21T07:28:06;16.42;;;12.10;;
41653;SDS011;68687;52.030;7.110;2023-05-21T07:30:35;16.48;;;11.70;;
41653;SDS011;68687;52.030;7.110;2023-05-21T07:33:00;17.23;;;11.27;;
41653;SDS011;68687;52.030;7.110;2023-05-21T07:35:29;16.20;;;11.82;;
41653;SDS011;68687;52.030;7.110;2023-05-21T07:37:54;18.38;;;11.82;;
41653;SDS011;68687;52.030;7.110;2023-05-21T07:40:19;20.35;;;12.15;;
41653;SDS011;68687;52.030;7.110;2023-05-21T07:42:45;18.98;;;11.40;;
41653;SDS011;68687;52.030;7.110;2023-05-21T07:45:11;19.77;;;11.70;;
41653;SDS011;68687;52.030;7.110;2023-05-21T07:47:36;18.67;;;11.93;;
41653;SDS011;68687;52.030;7.110;2023-05-21T07:50:04;17.67;;;12.20;;
41653;SDS011;68687;52.030;7.110;2023-05-21T07:52:30;15.25;;;11.40;;
41653;SDS011;68687;52.030;7.110;2023-05-21T07:54:55;17.23;;;11.75;;
41653;SDS011;68687;52.030;7.110;2023-05-21T07:57:20;19.17;;;12.05;;
41653;SDS011;68687;52.030;7.110;2023-05-21T07:59:47;19.10;;;11.25;;
41653;SDS011;68687;52.030;7.110;2023-05-21T08:02:12;16.60;;;11.90;;
41653;SDS011;68687;52.030;7.110;2023-05-21T08:04:47;15.77;;;11.43;;
41653;SDS011;68687;52.030;7.110;2023-05-21T08:07:12;18.05;;;12.73;;
41653;SDS011;68687;52.030;7.110;2023-05-21T08:09:39;15.80;;;10.95;;
41653;SDS011;68687;52.030;7.110;2023-05-21T08:12:05;17.35;;;11.95;;
41653;SDS011;68687;52.030;7.110;2023-05-21T08:14:31;16.55;;;11.88;;
41653;SDS011;68687;52.030;7.110;2023-05-21T08:16:59;16.45;;;11.63;;
41653;SDS011;68687;52.030;7.110;2023-05-21T08:19:24;15.88;;;11.23;;
41653;SDS011;68687;52.030;7.110;2023-05-21T08:21:50;21.65;;;12.25;;
41653;SDS011;68687;52.030;7.110;2023-05-21T08:24:15;20.30;;;12.48;;
41653;SDS011;68687;52.030;7.110;2023-05-21T08:26:41;18.77;;;12.73;;
41653;SDS011;68687;52.030;7.110;2023-05-21T08:29:07;16.48;;;12.50;;
41653;SDS011;68687;52.030;7.110;2023-05-21T08:31:32;19.35;;;12.57;;
41653;SDS011;68687;52.030;7.110;2023-05-21T08:34:01;17.05;;;13.10;;
41653;SDS011;68687;52.030;7.110;2023-05-21T08:36:26;18.60;;;12.95;;
41653;SDS011;68687;52.030;7.110;2023-05-21T08:38:51;17.23;;;12.48;;
41653;SDS011;68687;52.030;7.110;2023-05-21T08:41:17;19.17;;;12.68;;
41653;SDS011;68687;52.030;7.110;2023-05-21T08:43:45;18.08;;;12.48;;
41653;SDS011;68687;52.030;7.110;2023-05-21T08:46:15;20.58;;;13.20;;
41653;SDS011;68687;52.030;7.110;2023-05-21T08:48:43;25.23;;;14.75;;
41653;SDS011;68687;52.030;7.110;2023-05-21T08:51:12;20.67;;;13.32;;
41653;SDS011;68687;52.030;7.110;2023-05-21T08:53:40;19.45;;;14.10;;
41653;SDS011;68687;52.030;7.110;2023-05-21T08:56:09;22.42;;;14.27;;
41653;SDS011;68687;52.030;7.110;2023-05-21T08:58:37;17.85;;;12.65;;
41653;SDS011;68687;52.030;7.110;2023-05-21T09:01:09;25.83;;;13.40;;
41653;SDS011;68687;52.030;7.110;2023-05-21T09:03:36;24.25;;;13.93;;
41653;SDS011;68687;52.030;7.110;2023-05-21T09:06:04;18.88;;;13.63;;
41653;SDS011;68687;52.030;7.110;2023-05-21T09:08:34;17.10;;;12.43;;
41653;SDS011;68687;52.030;7.110;2023-05-21T09:11:00;17.52;;;14.05;;
41653;SDS011;68687;52.030;7.110;2023-05-21T09:13:27;19.38;;;13.57;;
41653;SDS011;68687;52.030;7.110;2023-05-21T09:16:01;20.08;;;14.55;;
41653;SDS011;68687;52.030;7.110;2023-05-21T09:18:26;19.95;;;13.77;;
41653;SDS011;68687;52.030;7.110;2023-05-21T09:20:52;20.50;;;14.45;;
41653;SDS011;68687;52.030;7.110;2023-05-21T09:23:18;20.50;;;14.73;;
41653;SDS011;68687;52.030;7.110;2023-05-21T09:25:44;23.05;;;16.00;;
41653;SDS011;68687;52.030;7.110;2023-05-21T09:28:13;21.63;;;15.90;;
41653;SDS011;68687;52.030;7.110;2023-05-21T09:30:46;22.02;;;14.65;;
41653;SDS011;68687;52.030;7.110;2023-05-21T09:33:24;22.27;;;15.50;;
41653;SDS011;68687;52.030;7.110;2023-05-21T09:35:51;20.10;;;15.05;;
41653;SDS011;68687;52.030;7.110;2023-05-21T09:38:20;20.55;;;14.93;;
41653;SDS011;68687;52.030;7.110;2023-05-21T09:40:47;20.15;;;14.27;;
41653;SDS011;68687;52.030;7.110;2023-05-21T09:43:15;23.70;;;16.33;;
41653;SDS011;68687;52.030;7.110;2023-05-21T09:45:53;23.20;;;15.38;;
41653;SDS011;68687;52.030;7.110;2023-05-21T09:48:31;23.98;;;15.77;;
41653;SDS011;68687;52.030;7.110;2023-05-21T09:51:13;22.60;;;15.35;;
41653;SDS011;68687;52.030;7.110;2023-05-21T09:53:43;26.15;;;15.95;;
41653;SDS011;68687;52.030;7.110;2023-05-21T09:56:09;23.40;;;15.75;;
41653;SDS011;68687;52.030;7.110;2023-05-21T09:58:34;19.83;;;15.75;;
41653;SDS011;68687;52.030;7.110;2023-05-21T10:01:00;21.60;;;15.85;;
41653;SDS011;68687;52.030;7.110;2023-05-21T10:03:28;22.08;;;15.90;;
41653;SDS011;68687;52.030;7.110;2023-05-21T10:05:56;23.67;;;16.55;;
41653;SDS011;68687;52.030;7.110;2023-05-21T10:08:26;22.63;;;17.63;;
41653;SDS011;68687;52.030;7.110;2023-05-21T10:11:03;26.13;;;16.45;;
41653;SDS011;68687;52.030;7.110;2023-05-21T10:13:29;24.88;;;17.55;;
41653;SDS011;68687;52.030;7.110;2023-05-21T10:15:58;26.92;;;17.15;;
41653;SDS011;68687;52.030;7.110;2023-05-21T10:18:27;23.13;;;16.42;;
41653;SDS011;68687;52.030;7.110;2023-05-21T10:20:54;27.63;;;16.88;;
41653;SDS011;68687;52.030;7.110;2023-05-21T10:23:20;24.38;;;16.42;;
41653;SDS011;68687;52.030;7.110;2023-05-21T10:25:47;27.50;;;17.15;;
41653;SDS011;68687;52.030;7.110;2023-05-21T10:28:15;26.60;;;17.55;;
41653;SDS011;68687;52.030;7.110;2023-05-21T10:30:45;24.42;;;15.88;;
41653;SDS011;68687;52.030;7.110;2023-05-21T10:33:11;24.98;;;16.42;;
41653;SDS011;68687;52.030;7.110;2023-05-21T10:35:40;25.38;;;16.58;;
41653;SDS011;68687;52.030;7.110;2023-05-21T10:38:07;22.92;;;16.60;;
41653;SDS011;68687;52.030;7.110;2023-05-21T10:40:33;22.65;;;16.35;;
41653;SDS011;68687;52.030;7.110;2023-05-21T10:56:58;22.87;;;16.83;;
41653;SDS011;68687;52.030;7.110;2023-05-21T10:59:41;25.42;;;17.80;;
41653;SDS011;68687;52.030;7.110;2023-05-21T11:02:08;26.00;;;16.35;;
41653;SDS011;68687;52.030;7.110;2023-05-21T11:04:36;23.05;;;15.90;;
41653;SDS011;68687;52.030;7.110;2023-05-21T11:07:05;21.70;;;17.08;;
41653;SDS011;68687;52.030;7.110;2023-05-21T11:09:31;22.65;;;16.63;;
41653;SDS011;68687;52.030;7.110;2023-05-21T11:11:56;25.40;;;15.88;;
41653;SDS011;68687;52.030;7.110;2023-05-21T11:14:26;25.35;;;16.67;;
41653;SDS011;68687;52.030;7.110;2023-05-21T11:17:03;24.38;;;15.95;;
41653;SDS011;68687;52.030;7.110;2023-05-21T11:22:22;24.63;;;17.02;;
41653;SDS011;68687;52.030;7.110;2023-05-21T11:24:49;26.20;;;17.80;;
41653;SDS011;68687;52.030;7.110;2023-05-21T11:27:32;25.00;;;16.27;;
41653;SDS011;68687;52.030;7.110;2023-05-21T11:32:35;24.17;;;17.75;;
41653;SDS011;68687;52.030;7.110;2023-05-21T11:35:01;24.55;;;17.27;;
41653;SDS011;68687;52.030;7.110;2023-05-21T11:37:29;24.35;;;16.75;;
41653;SDS011;68687;52.030;7.110;2023-05-21T11:42:55;26.38;;;18.83;;
41653;SDS011;68687;52.030;7.110;2023-05-21T11:45:21;29.38;;;18.45;;
41653;SDS011;68687;52.030;7.110;2023-05-21T11:47:51;21.83;;;16.60;;
41653;SDS011;68687;52.030;7.110;2023-05-21T11:50:17;29.13;;;18.67;;
41653;SDS011;68687;52.030;7.110;2023-05-21T11:52:43;26.23;;;18.10;;
41653;SDS011;68687;52.030;7.110;2023-05-21T11:55:11;22.42;;;17.63;;
41653;SDS011;68687;52.030;7.110;2023-05-21T11:57:40;21.63;;;16.67;;
41653;SDS011;68687;52.030;7.110;2023-05-21T12:00:11;25.92;;;16.95;;
41653;SDS011;68687;52.030;7.110;2023-05-21T12:02:42;24.33;;;17.30;;
41653;SDS011;68687;52.030;7.110;2023-05-21T12:05:08;25.80;;;17.30;;
41653;SDS011;68687;52.030;7.110;2023-05-21T12:07:40;20.77;;;16.45;;
41653;SDS011;68687;52.030;7.110;2023-05-21T12:10:05;24.13;;;18.23;;
41653;SDS011;68687;52.030;7.110;2023-05-21T12:12:31;26.95;;;18.00;;
41653;SDS011;68687;52.030;7.110;2023-05-21T12:14:57;25.15;;;17.52;;
41653;SDS011;68687;52.030;7.110;2023-05-21T12:17:32;22.48;;;18.20;;
41653;SDS011;68687;52.030;7.110;2023-05-21T12:19:58;28.15;;;20.23;;
41653;SDS011;68687;52.030;7.110;2023-05-21T12:22:23;27.10;;;19.58;;
41653;SDS011;68687;52.030;7.110;2023-05-21T12:24:52;26.33;;;18.13;;
41653;SDS011;68687;52.030;7.110;2023-05-21T12:27:18;24.80;;;18.23;;
41653;SDS011;68687;52.030;7.110;2023-05-21T12:29:52;28.50;;;18.35;;
41653;SDS011;68687;52.030;7.110;2023-05-21T12:32:18;25.67;;;17.88;;
41653;SDS011;68687;52.030;7.110;2023-05-21T12:34:45;26.83;;;18.23;;
41653;SDS011;68687;52.030;7.110;2023-05-21T12:37:20;26.38;;;17.77;;
41653;SDS011;68687;52.030;7.110;2023-05-21T12:39:46;25.88;;;18.73;;
41653;SDS011;68687;52.030;7.110;2023-05-21T12:42:13;25.98;;;17.80;;
41653;SDS011;68687;52.030;7.110;2023-05-21T12:44:47;24.08;;;18.98;;
41653;SDS011;68687;52.030;7.110;2023-05-21T12:47:21;23.77;;;18.52;;
41653;SDS011;68687;52.030;7.110;2023-05-21T12:49:48;27.23;;;19.58;;
41653;SDS011;68687;52.030;7.110;2023-05-21T12:52:14;29.42;;;18.63;;
41653;SDS011;68687;52.030;7.110;2023-05-21T12:54:43;24.38;;;19.08;;
41653;SDS011;68687;52.030;7.110;2023-05-21T12:57:19;23.05;;;18.58;;
41653;SDS011;68687;52.030;7.110;2023-05-21T12:59:55;25.00;;;18.38;;
41653;SDS011;68687;52.030;7.110;2023-05-21T13:05:00;22.70;;;18.42;;
41653;SDS011;68687;52.030;7.110;2023-05-21T13:07:30;27.75;;;18.83;;
41653;SDS011;68687;52.030;7.110;2023-05-21T13:09:57;26.55;;;18.15;;
41653;SDS011;68687;52.030;7.110;2023-05-21T13:12:26;28.58;;;18.50;;
41653;SDS011;68687;52.030;7.110;2023-05-21T13:14:53;25.10;;;17.58;;
41653;SDS011;68687;52.030;7.110;2023-05-21T13:17:20;24.23;;;17.92;;
41653;SDS011;68687;52.030;7.110;2023-05-21T13:20:31;24.23;;;18.02;;
41653;SDS011;68687;52.030;7.110;2023-05-21T13:22:44;27.67;;;19.17;;
41653;SDS011;68687;52.030;7.110;2023-05-21T13:25:11;27.35;;;19.23;;
41653;SDS011;68687;52.030;7.110;2023-05-21T13:27:45;29.52;;;18.90;;
41653;SDS011;68687;52.030;7.110;2023-05-21T13:30:11;24.83;;;17.25;;
41653;SDS011;68687;52.030;7.110;2023-05-21T13:32:37;23.42;;;17.52;;
41653;SDS011;68687;52.030;7.110;2023-05-21T13:35:04;23.00;;;17.38;;
41653;SDS011;68687;52.030;7.110;2023-05-21T13:37:29;24.10;;;17.17;;
41653;SDS011;68687;52.030;7.110;2023-05-21T13:39:55;24.98;;;17.27;;
41653;SDS011;68687;52.030;7.110;2023-05-21T13:42:20;25.02;;;17.45;;
41653;SDS011;68687;52.030;7.110;2023-05-21T13:44:46;25.55;;;17.83;;
41653;SDS011;68687;52.030;7.110;2023-05-21T13:47:12;26.77;;;18.05;;
41653;SDS011;68687;52.030;7.110;2023-05-21T13:49:40;22.33;;;16.60;;
41653;SDS011;68687;52.030;7.110;2023-05-21T13:52:06;23.83;;;16.60;;
41653;SDS011;68687;52.030;7.110;2023-05-21T13:54:33;22.58;;;16.88;;
41653;SDS011;68687;52.030;7.110;2023-05-21T13:57:07;22.73;;;17.85;;
41653;SDS011;68687;52.030;7.110;2023-05-21T13:59:33;21.55;;;17.40;;
41653;SDS011;68687;52.030;7.110;2023-05-21T14:02:05;22.98;;;18.00;;
41653;SDS011;68687;52.030;7.110;2023-05-21T14:04:32;25.83;;;17.33;;
41653;SDS011;68687;52.030;7.110;2023-05-21T14:06:58;22.05;;;17.20;;
41653;SDS011;68687;52.030;7.110;2023-05-21T14:09:29;23.42;;;16.27;;
41653;SDS011;68687;52.030;7.110;2023-05-21T14:11:55;23.13;;;17.20;;
41653;SDS011;68687;52.030;7.110;2023-05-21T14:14:21;23.42;;;16.63;;
41653;SDS011;68687;52.030;7.110;2023-05-21T14:16:47;21.80;;;17.25;;
41653;SDS011;68687;52.030;7.110;2023-05-21T14:19:13;28.83;;;18.77;;
41653;SDS011;68687;52.030;7.110;2023-05-21T14:21:38;24.88;;;17.70;;
41653;SDS011;68687;52.030;7.110;2023-05-21T14:24:04;21.95;;;16.77;;
41653;SDS011;68687;52.030;7.110;2023-05-21T14:26:39;21.83;;;17.38;;
41653;SDS011;68687;52.030;7.110;2023-05-21T14:29:04;20.05;;;16.80;;
41653;SDS011;68687;52.030;7.110;2023-05-21T14:31:30;29.90;;;17.42;;
41653;SDS011;68687;52.030;7.110;2023-05-21T14:33:55;26.02;;;15.77;;
41653;SDS011;68687;52.030;7.110;2023-05-21T14:36:20;23.17;;;16.63;;
41653;SDS011;68687;52.030;7.110;2023-05-21T14:38:46;23.03;;;17.47;;
41653;SDS011;68687;52.030;7.110;2023-05-21T14:41:14;23.17;;;16.00;;
41653;SDS011;68687;52.030;7.110;2023-05-21T14:43:39;19.20;;;15.02;;
41653;SDS011;68687;52.030;7.110;2023-05-21T14:46:08;19.65;;;15.82;;
41653;SDS011;68687;52.030;7.110;2023-05-21T14:48:33;24.30;;;15.52;;
41653;SDS011;68687;52.030;7.110;2023-05-21T14:50:58;22.02;;;17.35;;
41653;SDS011;68687;52.030;7.110;2023-05-21T14:53:33;18.70;;;15.45;;
41653;SDS011;68687;52.030;7.110;2023-05-21T14:55:58;24.40;;;17.50;;
41653;SDS011;68687;52.030;7.110;2023-05-21T14:58:23;26.83;;;17.98;;